Time;durP1;ratioP1;P1;durP2;ratioP2;P2;SDS_P1;SDS_P2;PMS_P1;PMS_P2;Temp;Humidity;BMP_temperature;BMP_pressure;BME280_temperature;BME280_humidity;BME280_pressure;Samples;Min_cycle;Max_cycle;Signal;HPM_P1;HPM_P2
2022/09/23 00:00:23;;;;;;;6.10;4.70;;;9.20;1.00;;;;;;7363198;19;20030;-65
2022/09/23 00:02:53;;;;;;;5.47;4.40;;;9.20;1.00;;;;;;7362310;19;20014;-65
2022/09/23 00:05:25;;;;;;;6.40;4.32;;;9.20;1.00;;;;;;7357726;19;20026;-65
2022/09/23 00:07:55;;;;;;;5.72;4.30;;;9.20;1.00;;;;;;7359822;19;20042;-65
2022/09/23 00:10:27;;;;;;;6.13;4.40;;;9.20;1.00;;;;;;7385413;19;20010;-65
2022/09/23 00:12:57;;;;;;;5.97;5.07;;;9.10;1.00;;;;;;7359795;19;20010;-66
2022/09/23 00:15:29;;;;;;;6.60;4.63;;;9.10;1.00;;;;;;7359418;19;20007;-65
2022/09/23 00:17:59;;;;;;;4.70;4.20;;;9.10;1.00;;;;;;7358520;19;20018;-65
2022/09/23 00:20:32;;;;;;;6.68;4.57;;;9.10;1.00;;;;;;7359846;19;20034;-65
2022/09/23 00:23:01;;;;;;;5.20;4.35;;;9.10;1.00;;;;;;7359952;19;20011;-66
2022/09/23 00:25:31;;;;;;;4.22;3.75;;;9.10;1.00;;;;;;7378533;19;20482;-65
2022/09/23 00:28:02;;;;;;;6.05;4.00;;;9.00;1.00;;;;;;7357869;19;20054;-65
2022/09/23 00:30:31;;;;;;;4.55;4.15;;;9.00;1.00;;;;;;7369757;19;20014;-65
2022/09/23 00:33:01;;;;;;;4.60;4.18;;;8.90;1.00;;;;;;7365553;19;20466;-66
2022/09/23 00:35:34;;;;;;;4.82;4.15;;;8.90;1.30;;;;;;7364417;19;20558;-65
2022/09/23 00:38:03;;;;;;;5.95;4.35;;;8.80;1.70;;;;;;7365180;19;20010;-65
2022/09/23 00:40:35;;;;;;;5.82;4.53;;;8.80;2.60;;;;;;7390308;19;20490;-67
2022/09/23 00:43:05;;;;;;;5.88;4.78;;;8.70;3.10;;;;;;7387582;19;20010;-65
2022/09/23 00:45:35;;;;;;;6.32;4.28;;;8.70;3.70;;;;;;7363048;19;20006;-66
2022/09/23 00:48:05;;;;;;;6.47;4.43;;;8.70;3.90;;;;;;7366602;19;20478;-65
2022/09/23 00:50:42;;;;;;;5.45;4.32;;;8.70;3.40;;;;;;7368131;19;20478;-65
2022/09/23 00:53:15;;;;;;;7.00;5.10;;;8.60;3.60;;;;;;7367702;19;20034;-65
2022/09/23 00:55:50;;;;;;;5.85;4.47;;;8.70;3.70;;;;;;7365029;19;20047;-65
2022/09/23 00:58:26;;;;;;;5.63;4.85;;;8.70;3.90;;;;;;7389212;19;20029;-65
2022/09/23 01:00:58;;;;;;;5.43;4.80;;;8.60;4.30;;;;;;7368884;19;20006;-66
2022/09/23 01:03:28;;;;;;;6.72;4.85;;;8.60;4.90;;;;;;7365488;19;20075;-66
2022/09/23 01:06:01;;;;;;;6.47;4.72;;;8.50;5.70;;;;;;7363755;19;20016;-66
2022/09/23 01:08:31;;;;;;;6.88;4.70;;;8.40;6.90;;;;;;7366723;19;20033;-66
2022/09/23 01:11:13;;;;;;;8.55;5.25;;;8.40;7.50;;;;;;7367542;19;20428;-66
2022/09/23 01:13:53;;;;;;;7.35;5.80;;;8.30;7.40;;;;;;7362693;19;20026;-66
2022/09/23 01:16:32;;;;;;;9.88;5.97;;;8.30;7.80;;;;;;7388365;19;20010;-66
2022/09/23 01:19:08;;;;;;;6.68;5.25;;;8.30;8.50;;;;;;7367761;19;20026;-65
2022/09/23 01:21:48;;;;;;;6.72;5.68;;;8.30;9.50;;;;;;7368411;19;20022;-65
2022/09/23 01:24:39;;;;;;;10.25;6.93;;;8.20;9.90;;;;;;7360789;19;20050;-66
2022/09/23 01:27:34;;;;;;;8.35;6.68;;;8.20;10.80;;;;;;7363800;19;20490;-66
2022/09/23 01:30:20;;;;;;;9.48;7.43;;;8.20;10.90;;;;;;7368105;19;20513;-66
2022/09/23 01:33:09;;;;;;;8.80;6.85;;;8.40;10.20;;;;;;7363672;19;20497;-65
2022/09/23 01:36:00;;;;;;;13.20;8.18;;;8.30;11.00;;;;;;7363612;19;20046;-65
2022/09/23 01:38:39;;;;;;;9.85;7.55;;;8.40;11.10;;;;;;7366972;19;20018;-65
2022/09/23 01:41:18;;;;;;;8.88;7.82;;;8.30;11.20;;;;;;7366215;19;20007;-65
2022/09/23 01:43:54;;;;;;;10.00;7.72;;;8.30;11.30;;;;;;7363493;19;20459;-65
2022/09/23 01:46:29;;;;;;;11.68;8.63;;;8.20;12.20;;;;;;7386510;19;20011;-65
2022/09/23 01:49:09;;;;;;;12.48;9.07;;;8.20;12.70;;;;;;7366364;19;20007;-66
2022/09/23 01:51:43;;;;;;;12.93;8.50;;;8.20;13.10;;;;;;7367173;19;20027;-65
2022/09/23 01:54:17;;;;;;;9.90;7.82;;;8.10;13.30;;;;;;7359867;19;20029;-68
2022/09/23 01:56:52;;;;;;;9.93;7.43;;;8.20;13.70;;;;;;7363978;19;20014;-68
2022/09/23 01:59:27;;;;;;;10.00;8.07;;;8.10;14.50;;;;;;7367585;19;20466;-66
2022/09/23 02:02:03;;;;;;;14.18;9.10;;;8.10;14.60;;;;;;7368212;19;20007;-66
2022/09/23 02:04:43;;;;;;;11.75;8.20;;;8.10;15.10;;;;;;7380619;19;20019;-66
2022/09/23 02:07:19;;;;;;;12.13;8.93;;;8.00;15.40;;;;;;7363272;19;20006;-66
2022/09/23 02:09:56;;;;;;;10.10;8.57;;;8.10;15.70;;;;;;7367051;19;20006;-66
2022/09/23 02:12:29;;;;;;;13.55;9.68;;;8.00;16.20;;;;;;7366260;19;20006;-66
2022/09/23 02:15:04;;;;;;;12.75;9.93;;;8.00;16.40;;;;;;7359904;19;20014;-66
2022/09/23 02:17:38;;;;;;;16.83;10.25;;;8.00;17.30;;;;;;7362935;19;20014;-66
2022/09/23 02:20:14;;;;;;;10.95;9.20;;;8.00;17.90;;;;;;7365841;19;20439;-66
2022/09/23 02:22:53;;;;;;;15.93;10.57;;;8.00;18.40;;;;;;7364429;19;20545;-66
2022/09/23 02:25:27;;;;;;;14.50;10.10;;;8.00;18.90;;;;;;7382926;19;20489;-66
2022/09/23 02:28:03;;;;;;;12.40;10.03;;;7.90;19.30;;;;;;7358945;19;20022;-66
2022/09/23 02:30:38;;;;;;;17.70;10.15;;;8.00;19.30;;;;;;7364498;19;20018;-67
2022/09/23 02:33:12;;;;;;;17.75;10.55;;;8.00;19.10;;;;;;7360404;19;20081;-66
2022/09/23 02:35:54;;;;;;;12.30;10.27;;;7.90;19.00;;;;;;7360726;19;20011;-67
2022/09/23 02:38:32;;;;;;;14.18;9.77;;;7.90;19.00;;;;;;7361962;19;20442;-66
2022/09/23 02:41:09;;;;;;;15.27;9.57;;;7.90;18.90;;;;;;7364120;19;20010;-66
2022/09/23 02:43:44;;;;;;;13.77;10.05;;;7.80;18.40;;;;;;7359375;19;20007;-66
2022/09/23 02:46:14;;;;;;;13.45;9.40;;;7.80;18.70;;;;;;7380816;19;20019;-66
2022/09/23 02:48:47;;;;;;;12.23;9.40;;;7.80;18.30;;;;;;7362802;19;20082;-66
2022/09/23 02:51:20;;;;;;;12.13;9.05;;;7.80;18.00;;;;;;7365790;19;20502;-66
2022/09/23 02:53:50;;;;;;;10.90;8.75;;;7.80;17.90;;;;;;7358469;19;20010;-66
2022/09/23 02:56:21;;;;;;;10.88;9.20;;;7.80;17.10;;;;;;7362433;19;20014;-66
2022/09/23 02:58:54;;;;;;;11.65;8.65;;;7.90;16.10;;;;;;7364206;19;20019;-66
2022/09/23 03:01:38;;;;;;;13.45;8.98;;;7.80;16.20;;;;;;7387983;19;20011;-66
2022/09/23 03:04:15;;;;;;;10.68;8.10;;;7.80;16.60;;;;;;7355758;19;20029;-66
2022/09/23 03:06:59;;;;;;;11.10;8.65;;;7.90;14.40;;;;;;7361453;19;20569;-66
2022/09/23 03:09:33;;;;;;;11.95;8.13;;;8.00;14.00;;;;;;7364737;19;20014;-66
2022/09/23 03:12:13;;;;;;;9.82;8.07;;;7.90;14.40;;;;;;7365278;19;20735;-66
2022/09/23 03:14:52;;;;;;;11.32;8.48;;;7.80;14.40;;;;;;7357549;19;20014;-66
2022/09/23 03:17:28;;;;;;;9.60;7.90;;;7.80;14.40;;;;;;7361757;19;20010;-66
2022/09/23 03:20:03;;;;;;;12.43;7.63;;;7.80;14.40;;;;;;7364803;19;20007;-66
2022/09/23 03:22:38;;;;;;;;;;;7.90;13.60;;;;;;7387857;19;20021;-66
2022/09/23 03:25:12;;;;;;;9.20;7.55;;;7.90;13.70;;;;;;7356610;19;20327;-66
2022/09/23 03:27:44;;;;;;;10.60;8.35;;;7.90;13.40;;;;;;7359356;19;20454;-66
2022/09/23 03:30:15;;;;;;;10.00;7.45;;;7.90;13.00;;;;;;7364591;19;20568;-67
2022/09/23 03:32:48;;;;;;;9.63;8.07;;;7.80;13.90;;;;;;7361547;19;20007;-66
2022/09/23 03:35:19;;;;;;;9.35;7.93;;;7.80;13.90;;;;;;7358553;19;20058;-67
2022/09/23 03:37:57;;;;;;;10.10;7.50;;;7.70;14.30;;;;;;7360785;19;20014;-66
2022/09/23 03:40:31;;;;;;;10.63;7.80;;;7.70;14.60;;;;;;7385781;19;20474;-66
2022/09/23 03:43:03;;;;;;;;;;;7.70;14.30;;;;;;7361760;19;20358;-66
2022/09/23 03:45:35;;;;;;;12.63;7.93;;;7.70;14.30;;;;;;7359855;19;20252;-67
2022/09/23 03:48:06;;;;;;;11.50;7.85;;;7.60;14.20;;;;;;7359977;19;20085;-66
2022/09/23 03:50:36;;;;;;;9.68;7.93;;;7.60;14.30;;;;;;7363655;19;20387;-67
2022/09/23 03:53:08;;;;;;;9.65;7.18;;;7.60;15.20;;;;;;7362793;19;20466;-66
2022/09/23 03:55:39;;;;;;;9.55;8.05;;;7.60;15.10;;;;;;7363094;19;20019;-67
2022/09/23 03:58:10;;;;;;;9.57;7.63;;;7.50;14.80;;;;;;7382915;19;20491;-64
2022/09/23 04:00:39;;;;;;;10.40;7.70;;;7.50;15.30;;;;;;7363571;19;20015;-64
2022/09/23 04:03:09;;;;;;;11.52;8.02;;;7.60;14.70;;;;;;7362026;19;20054;-65
2022/09/23 04:05:41;;;;;;;10.55;8.25;;;7.50;14.90;;;;;;7365705;19;20478;-66
2022/09/23 04:08:14;;;;;;;9.20;7.43;;;7.50;14.80;;;;;;7368473;19;20491;-66
2022/09/23 04:10:43;;;;;;;11.80;8.60;;;7.50;14.60;;;;;;7369933;19;20033;-66
2022/09/23 04:13:16;;;;;;;10.40;7.82;;;7.50;14.80;;;;;;7390004;19;20361;-65
2022/09/23 04:15:45;;;;;;;10.90;7.88;;;7.50;14.70;;;;;;7365600;19;20501;-66
2022/09/23 04:18:15;;;;;;;10.98;8.35;;;7.50;14.20;;;;;;7367399;19;20682;-66
2022/09/23 04:20:45;;;;;;;10.13;7.85;;;7.50;14.20;;;;;;7370023;19;20332;-66
2022/09/23 04:23:17;;;;;;;12.20;7.40;;;7.50;14.20;;;;;;7368122;19;20042;-65
2022/09/23 04:25:47;;;;;;;9.82;7.20;;;7.50;14.30;;;;;;7364311;19;20022;-65
2022/09/23 04:28:17;;;;;;;10.68;7.18;;;7.40;14.90;;;;;;7389452;19;20355;-65
2022/09/23 04:30:47;;;;;;;10.00;7.35;;;7.40;15.00;;;;;;7369811;19;20046;-66
2022/09/23 04:33:18;;;;;;;10.52;7.70;;;7.40;14.70;;;;;;7367964;19;20006;-66
2022/09/23 04:35:52;;;;;;;10.70;7.28;;;7.50;14.20;;;;;;7364555;19;20763;-66
2022/09/23 04:38:24;;;;;;;8.95;7.32;;;7.50;14.10;;;;;;7368168;19;20057;-66
2022/09/23 04:40:54;;;;;;;11.30;7.22;;;7.40;14.10;;;;;;7369155;19;20067;-66
2022/09/23 04:43:24;;;;;;;8.98;6.95;;;7.40;14.60;;;;;;7390370;19;20026;-65
2022/09/23 04:46:01;;;;;;;8.90;7.10;;;7.50;14.20;;;;;;7365520;19;20006;-65
2022/09/23 04:48:32;;;;;;;9.35;6.82;;;7.40;14.10;;;;;;7365826;19;20010;-65
2022/09/23 04:51:04;;;;;;;9.13;6.82;;;7.40;14.10;;;;;;7368336;19;20017;-66
2022/09/23 04:53:38;;;;;;;9.95;7.85;;;7.30;15.10;;;;;;7366220;19;20014;-66
2022/09/23 04:56:11;;;;;;;10.88;7.15;;;7.30;15.50;;;;;;7366150;19;20654;-66
2022/09/23 04:58:42;;;;;;;11.38;7.32;;;7.40;14.60;;;;;;7366676;19;20010;-66
2022/09/23 05:01:13;;;;;;;10.77;7.90;;;7.40;14.40;;;;;;7390116;19;20462;-66
2022/09/23 05:03:44;;;;;;;10.93;7.63;;;7.40;14.10;;;;;;7364066;19;20027;-66
2022/09/23 05:06:16;;;;;;;9.73;7.05;;;7.40;14.10;;;;;;7365798;19;20010;-66
2022/09/23 05:08:53;;;;;;;8.88;6.95;;;7.40;14.10;;;;;;7366326;19;20014;-66
2022/09/23 05:11:24;;;;;;;10.20;7.68;;;7.40;14.40;;;;;;7368895;19;20122;-66
2022/09/23 05:13:55;;;;;;;10.18;7.45;;;7.30;15.20;;;;;;7363408;19;20020;-66
2022/09/23 05:16:26;;;;;;;8.60;7.05;;;7.30;15.50;;;;;;7382455;19;20355;-66
2022/09/23 05:18:56;;;;;;;10.18;7.57;;;7.30;16.00;;;;;;7363179;19;20380;-67
2022/09/23 05:21:29;;;;;;;10.93;8.00;;;7.40;16.00;;;;;;7367477;19;20486;-67
2022/09/23 05:24:01;;;;;;;12.48;8.07;;;7.40;15.80;;;;;;7362399;19;20070;-67
2022/09/23 05:26:33;;;;;;;12.35;8.30;;;7.40;16.10;;;;;;7362026;19;20014;-67
2022/09/23 05:29:02;;;;;;;10.52;8.13;;;7.50;16.10;;;;;;7367480;19;20026;-66
2022/09/23 05:31:33;;;;;;;14.38;9.07;;;7.50;15.80;;;;;;7389341;19;20010;-66
2022/09/23 05:34:04;;;;;;;20.83;9.68;;;7.60;15.60;;;;;;7362063;19;20015;-67
2022/09/23 05:36:35;;;;;;;14.18;8.85;;;7.60;14.90;;;;;;7360515;19;20519;-66
2022/09/23 05:39:10;;;;;;;14.17;9.03;;;7.70;14.80;;;;;;7363707;19;20010;-66
2022/09/23 05:41:42;;;;;;;12.77;7.82;;;7.80;14.60;;;;;;7366583;19;20239;-66
2022/09/23 05:44:12;;;;;;;11.02;7.65;;;7.80;14.30;;;;;;7361267;19;20010;-66
2022/09/23 05:46:41;;;;;;;13.98;8.35;;;7.90;13.40;;;;;;7361962;19;20600;-66
2022/09/23 05:49:11;;;;;;;16.40;7.90;;;8.00;12.70;;;;;;7386842;19;20494;-66
2022/09/23 05:51:41;;;;;;;13.27;8.10;;;8.10;12.60;;;;;;7366309;19;20476;-66
2022/09/23 05:54:13;;;;;;;9.15;7.32;;;8.10;11.90;;;;;;7360453;19;20526;-66
2022/09/23 05:56:44;;;;;;;18.65;8.10;;;8.30;11.90;;;;;;7363582;19;20011;-66
2022/09/23 05:59:13;;;;;;;9.68;7.70;;;8.40;11.20;;;;;;7366894;19;20017;-66
2022/09/23 06:01:45;;;;;;;14.18;7.78;;;8.40;9.10;;;;;;7366828;19;20021;-66
2022/09/23 06:04:15;;;;;;;12.43;6.53;;;8.50;7.60;;;;;;7382248;19;20070;-66
2022/09/23 06:06:45;;;;;;;8.88;7.50;;;8.60;7.60;;;;;;7363079;19;20502;-66
2022/09/23 06:09:20;;;;;;;10.32;7.47;;;8.70;6.90;;;;;;7365123;19;20510;-67
2022/09/23 06:11:50;;;;;;;10.38;6.72;;;8.80;6.70;;;;;;7367268;19;20524;-66
2022/09/23 06:14:20;;;;;;;9.65;7.68;;;8.90;5.30;;;;;;7361694;19;20017;-67
2022/09/23 06:16:50;;;;;;;9.98;7.38;;;9.00;3.90;;;;;;7359864;19;20029;-66
2022/09/23 06:19:21;;;;;;;12.02;7.32;;;9.10;3.80;;;;;;7386906;19;20057;-66
2022/09/23 06:21:51;;;;;;;8.88;6.32;;;9.20;1.90;;;;;;7365953;19;20022;-67
2022/09/23 06:24:23;;;;;;;17.35;7.35;;;9.30;1.00;;;;;;7360088;19;20493;-67
2022/09/23 06:26:59;;;;;;;10.10;7.00;;;9.30;1.00;;;;;;7361372;19;20047;-67
2022/09/23 06:29:30;;;;;;;10.77;7.00;;;9.30;1.00;;;;;;7365592;19;20035;-66
2022/09/23 06:32:01;;;;;;;8.55;6.65;;;9.50;1.00;;;;;;7366409;19;20014;-66
2022/09/23 06:34:31;;;;;;;13.05;7.78;;;9.60;1.00;;;;;;7382394;19;20344;-67
2022/09/23 06:37:12;;;;;;;9.43;6.05;;;9.70;1.00;;;;;;7361870;19;20038;-67
2022/09/23 06:39:53;;;;;;;10.43;6.53;;;9.90;1.00;;;;;;7363815;19;20493;-67
2022/09/23 06:42:23;;;;;;;7.43;5.85;;;10.00;1.00;;;;;;7366523;19;20017;-66
2022/09/23 06:44:53;;;;;;;7.85;6.28;;;10.20;1.00;;;;;;7356574;19;20018;-66
2022/09/23 06:47:22;;;;;;;11.65;6.95;;;10.20;1.00;;;;;;7361469;19;20007;-65
2022/09/23 06:49:52;;;;;;;7.95;6.00;;;10.30;1.00;;;;;;7364999;19;20035;-66
2022/09/23 06:52:22;;;;;;;10.25;6.65;;;10.40;1.00;;;;;;7386378;19;20006;-66
2022/09/23 06:54:55;;;;;;;7.95;6.20;;;10.20;1.00;;;;;;7357801;19;20462;-66
2022/09/23 06:57:25;;;;;;;7.45;5.75;;;10.20;1.00;;;;;;7360691;19;20007;-65
2022/09/23 06:59:57;;;;;;;7.97;6.15;;;10.20;1.00;;;;;;7364467;19;20018;-66
2022/09/23 07:02:27;;;;;;;9.52;6.07;;;10.40;1.00;;;;;;7364056;19;20037;-66
2022/09/23 07:04:57;;;;;;;8.68;6.68;;;10.50;1.00;;;;;;7358491;19;20014;-66
2022/09/23 07:07:28;;;;;;;8.35;6.18;;;10.70;1.00;;;;;;7380666;19;20014;-66
2022/09/23 07:10:00;;;;;;;8.50;5.65;;;10.70;1.00;;;;;;7363421;19;20017;-67
2022/09/23 07:12:30;;;;;;;12.45;6.75;;;10.80;1.00;;;;;;7363726;19;20346;-66
2022/09/23 07:15:00;;;;;;;8.90;6.57;;;10.80;1.00;;;;;;7356110;19;20042;-67
2022/09/23 07:17:29;;;;;;;11.98;8.65;;;11.00;1.00;;;;;;7360724;19;20011;-66
2022/09/23 07:19:59;;;;;;;11.13;6.47;;;11.20;1.00;;;;;;7364156;19;20335;-65
2022/09/23 07:22:29;;;;;;;11.23;6.35;;;11.20;1.00;;;;;;7385148;19;20078;-66
2022/09/23 07:25:01;;;;;;;7.88;5.80;;;11.40;1.00;;;;;;7355961;19;20140;-65
2022/09/23 07:27:32;;;;;;;8.70;6.15;;;11.50;1.00;;;;;;7357918;19;20013;-66
2022/09/23 07:30:01;;;;;;;10.60;6.22;;;11.70;1.00;;;;;;7361866;19;20018;-66
2022/09/23 07:32:31;;;;;;;10.27;6.47;;;11.80;1.00;;;;;;7362332;19;20091;-67
2022/09/23 07:35:13;;;;;;;21.80;14.80;;;11.90;1.00;;;;;;7356738;19;20081;-67
2022/09/23 07:37:43;;;;;;;10.63;6.57;;;12.10;1.00;;;;;;7355528;19;20039;-66
2022/09/23 07:40:16;;;;;;;9.98;5.78;;;12.30;1.00;;;;;;7382255;19;20014;-67
2022/09/23 07:42:46;;;;;;;7.35;6.00;;;12.40;1.00;;;;;;7360119;19;20018;-66
2022/09/23 07:45:17;;;;;;;7.70;5.68;;;12.30;1.00;;;;;;7355564;19;20010;-66
2022/09/23 07:47:47;;;;;;;9.70;6.00;;;12.50;1.00;;;;;;7356955;19;20388;-66
2022/09/23 07:50:17;;;;;;;8.70;5.65;;;12.50;1.00;;;;;;7361564;19;20018;-66
2022/09/23 07:52:47;;;;;;;7.90;5.93;;;12.80;1.00;;;;;;7358106;19;20081;-66
2022/09/23 07:55:21;;;;;;;14.32;8.82;;;12.60;1.00;;;;;;7376238;19;20516;-66
2022/09/23 07:57:51;;;;;;;10.48;6.35;;;12.90;1.00;;;;;;7356351;19;20018;-66
2022/09/23 08:00:20;;;;;;;10.95;5.55;;;12.80;1.00;;;;;;7360910;19;20011;-66
2022/09/23 08:02:51;;;;;;;7.72;5.70;;;12.90;1.00;;;;;;7359923;19;20018;-67
2022/09/23 08:05:21;;;;;;;8.70;5.25;;;12.80;1.00;;;;;;7355434;19;20010;-65
2022/09/23 08:07:51;;;;;;;12.93;5.40;;;12.90;1.00;;;;;;7356234;19;20022;-65
2022/09/23 08:10:29;;;;;;;5.97;5.22;;;13.00;1.00;;;;;;7384306;19;20340;-66
2022/09/23 08:13:00;;;;;;;5.97;5.05;;;13.00;1.00;;;;;;7359947;19;20011;-67
2022/09/23 08:15:31;;;;;;;6.15;5.18;;;12.80;1.00;;;;;;7354461;19;20011;-67
2022/09/23 08:18:01;;;;;;;6.18;5.07;;;13.10;1.00;;;;;;7357057;19;20391;-66
2022/09/23 08:20:46;;;;;;;10.00;4.88;;;12.90;1.00;;;;;;7361508;19;20015;-66
2022/09/23 08:23:19;;;;;;;7.43;4.70;;;13.10;1.00;;;;;;7359624;19;20016;-66
2022/09/23 08:25:58;;;;;;;10.68;4.68;;;13.30;1.00;;;;;;7353266;19;20473;-66
2022/09/23 08:28:32;;;;;;;6.05;4.93;;;13.40;1.00;;;;;;7379805;19;20150;-65
2022/09/23 08:31:02;;;;;;;6.65;5.00;;;13.70;1.00;;;;;;7360641;19;20022;-67
2022/09/23 08:33:32;;;;;;;7.35;4.65;;;13.60;1.00;;;;;;7357635;19;20081;-67
2022/09/23 08:36:04;;;;;;;7.25;4.50;;;13.50;1.00;;;;;;7354013;19;20477;-66
2022/09/23 08:38:34;;;;;;;5.30;4.80;;;13.70;1.00;;;;;;7358562;19;20390;-66
2022/09/23 08:41:15;;;;;;;5.40;4.30;;;13.80;1.00;;;;;;7360593;19;20014;-67
2022/09/23 08:43:50;;;;;;;15.38;12.73;;;14.00;1.00;;;;;;7356048;19;20034;-66
2022/09/23 08:46:24;;;;;;;7.72;4.18;;;14.10;1.00;;;;;;7377835;19;20011;-66
2022/09/23 08:48:56;;;;;;;5.95;4.50;;;14.10;1.00;;;;;;7359494;19;20102;-66
2022/09/23 08:51:32;;;;;;;5.90;4.32;;;14.20;1.00;;;;;;7364834;19;20099;-66
2022/09/23 08:54:03;;;;;;;5.07;3.75;;;14.30;1.00;;;;;;7364374;19;20074;-67
2022/09/23 08:56:38;;;;;;;11.30;3.65;;;14.50;1.00;;;;;;7361515;19;20014;-67
2022/09/23 08:59:13;;;;;;;7.07;4.22;;;14.60;1.00;;;;;;7367043;19;20021;-67
2022/09/23 09:01:46;;;;;;;7.43;3.60;;;14.50;1.00;;;;;;7365637;19;20010;-67
2022/09/23 09:04:19;;;;;;;4.40;3.88;;;14.60;1.00;;;;;;7383240;19;20093;-66
2022/09/23 09:06:53;;;;;;;5.32;3.53;;;14.70;1.00;;;;;;7360576;19;20018;-66
2022/09/23 09:09:46;;;;;;;6.95;4.50;;;14.60;1.00;;;;;;7365864;19;20014;-67
2022/09/23 09:12:20;;;;;;;8.48;4.50;;;14.60;1.00;;;;;;7369161;19;20062;-66
2022/09/23 09:14:58;;;;;;;4.85;3.70;;;14.80;1.00;;;;;;7359280;19;20093;-66
2022/09/23 09:17:37;;;;;;;4.20;3.80;;;14.80;1.00;;;;;;7360359;19;20090;-67
2022/09/23 09:20:22;;;;;;;5.05;3.97;;;14.80;1.00;;;;;;7366229;19;20362;-66
2022/09/23 09:22:58;;;;;;;6.03;4.20;;;15.00;1.00;;;;;;7367003;19;20019;-66
2022/09/23 09:25:41;;;;;;;9.48;3.67;;;15.00;1.00;;;;;;7383274;19;20078;-66
2022/09/23 09:28:21;;;;;;;8.27;3.90;;;15.10;1.00;;;;;;7364828;19;20114;-66
2022/09/23 09:30:57;;;;;;;8.75;4.32;;;15.20;1.00;;;;;;7363666;19;20074;-66
2022/09/23 09:33:32;;;;;;;5.22;3.85;;;15.30;1.00;;;;;;7366388;19;20018;-66
2022/09/23 09:36:11;;;;;;;4.75;4.00;;;15.30;1.00;;;;;;7360289;19;20032;-67
2022/09/23 09:38:41;;;;;;;3.88;3.50;;;15.20;1.00;;;;;;7366936;19;20469;-66
2022/09/23 09:41:16;;;;;;;5.72;3.67;;;15.30;1.00;;;;;;7367400;19;20011;-67
2022/09/23 09:43:52;;;;;;;6.63;4.18;;;15.30;1.00;;;;;;7363614;19;20017;-67
2022/09/23 09:46:47;;;;;;;10.98;7.60;;;15.50;1.00;;;;;;7382414;19;20011;-67
2022/09/23 09:49:27;;;;;;;9.18;4.82;;;15.50;1.00;;;;;;7365640;19;20086;-66
2022/09/23 09:52:21;;;;;;;5.35;3.63;;;15.60;1.00;;;;;;7367291;19;20482;-67
2022/09/23 09:54:54;;;;;;;5.53;4.13;;;15.80;1.00;;;;;;7359176;19;20007;-66
2022/09/23 09:57:38;;;;;;;6.35;4.03;;;15.80;1.00;;;;;;7361233;19;20010;-67
2022/09/23 10:00:35;;;;;;;;;;;15.70;1.00;;;;;;7366040;19;20010;-66
2022/09/23 10:03:21;;;;;;;7.45;4.18;;;15.90;1.00;;;;;;7364191;19;19919;-66
2022/09/23 10:05:56;;;;;;;6.38;4.32;;;16.00;1.00;;;;;;7359033;19;20415;-66
2022/09/23 10:08:30;;;;;;;5.40;4.05;;;15.80;1.00;;;;;;7364073;19;20644;-66
2022/09/23 10:11:07;;;;;;;6.00;4.30;;;15.90;1.00;;;;;;7363952;19;20015;-67
2022/09/23 10:13:36;;;;;;;9.57;4.43;;;16.20;1.00;;;;;;7362781;19;20018;-67
2022/09/23 10:16:10;;;;;;;6.53;4.10;;;16.30;1.00;;;;;;7382625;19;20022;-66
2022/09/23 10:18:52;;;;;;;5.93;4.10;;;16.40;1.00;;;;;;7362953;19;20026;-66
2022/09/23 10:21:23;;;;;;;6.50;4.50;;;16.50;1.00;;;;;;7365787;19;20030;-66
2022/09/23 10:24:00;;;;;;;6.25;4.68;;;16.70;1.00;;;;;;7363080;19;21078;-67
2022/09/23 10:26:32;;;;;;;7.87;4.50;;;16.40;1.00;;;;;;7359518;19;20014;-67
2022/09/23 10:29:04;;;;;;;6.55;4.65;;;16.80;1.00;;;;;;7363382;19;20010;-67
2022/09/23 10:31:37;;;;;;;7.65;4.53;;;16.90;1.00;;;;;;7379893;19;20009;-67
2022/09/23 10:34:24;;;;;;;6.72;3.90;;;16.80;1.00;;;;;;7383976;19;20016;-67
2022/09/23 10:36:57;;;;;;;10.38;4.30;;;17.20;1.00;;;;;;7359274;19;20424;-65
2022/09/23 10:48:11;;;;;;;7.43;4.28;;;17.30;1.00;;;;;;7360142;19;20010;-66
2022/09/23 10:50:46;;;;;;;15.15;4.60;;;17.00;1.00;;;;;;7364214;19;20394;-66
2022/09/23 10:53:21;;;;;;;7.53;3.92;;;17.20;1.00;;;;;;7364474;19;20010;-66
2022/09/23 10:56:11;;;;;;;5.18;4.07;;;17.40;1.00;;;;;;7355172;19;20470;-66
2022/09/23 10:59:18;;;;;;;7.10;4.40;;;17.50;1.00;;;;;;7362807;19;20018;-65
2022/09/23 11:02:00;;;;;;;6.35;4.32;;;17.20;1.00;;;;;;7366189;19;20021;-66
2022/09/23 11:05:03;;;;;;;6.35;4.25;;;17.50;1.00;;;;;;7380913;19;20358;-66
2022/09/23 11:07:43;;;;;;;10.20;4.40;;;17.30;1.00;;;;;;7257842;19;2004336;-66
2022/09/23 11:10:35;;;;;;;7.43;4.20;;;17.50;1.00;;;;;;7386036;19;20015;-66
2022/09/23 11:13:27;;;;;;;8.07;4.30;;;17.70;1.00;;;;;;7360615;19;20010;-67
2022/09/23 11:16:04;;;;;;;10.00;4.03;;;17.60;1.00;;;;;;7357240;19;20010;-67
2022/09/23 11:18:50;;;;;;;6.35;3.53;;;17.80;1.00;;;;;;7361147;19;20014;-66
2022/09/23 11:21:51;;;;;;;4.03;3.20;;;17.80;1.00;;;;;;7363875;19;20006;-65
2022/09/23 11:25:00;;;;;;;6.43;3.00;;;18.00;1.00;;;;;;7359067;19;20003;-66
2022/09/23 11:27:44;;;;;;;5.85;3.75;;;18.10;1.00;;;;;;7358095;19;20011;-66
2022/09/23 11:30:16;;;;;;;5.25;4.22;;;18.00;1.00;;;;;;7361113;19;20522;-67
2022/09/23 11:33:12;;;;;;;4.82;3.65;;;17.80;1.00;;;;;;7362408;19;20017;-66
2022/09/23 11:35:49;;;;;;;7.13;3.50;;;17.80;1.00;;;;;;7356163;19;20032;-67
2022/09/23 11:38:24;;;;;;;4.30;3.72;;;18.00;1.00;;;;;;7362052;19;20002;-67
2022/09/23 11:41:01;;;;;;;6.25;3.72;;;17.80;1.00;;;;;;7360440;19;20841;-66
2022/09/23 11:43:37;;;;;;;5.40;3.85;;;17.90;1.00;;;;;;7382449;19;20018;-67
2022/09/23 11:46:13;;;;;;;5.93;3.72;;;18.20;1.00;;;;;;7358520;19;20015;-67
2022/09/23 11:48:47;;;;;;;6.15;3.88;;;18.40;1.00;;;;;;7361318;19;20022;-65
2022/09/23 11:51:25;;;;;;;5.65;3.63;;;18.10;1.00;;;;;;7360651;19;20018;-67
2022/09/23 11:54:00;;;;;;;4.57;3.42;;;18.00;1.00;;;;;;7358884;19;21009;-66
2022/09/23 11:56:38;;;;;;;4.75;3.50;;;18.40;1.00;;;;;;7355068;19;20011;-66
2022/09/23 11:59:20;;;;;;;4.80;3.35;;;18.40;1.00;;;;;;7361775;19;20090;-66
2022/09/23 12:02:14;;;;;;;6.43;3.55;;;18.60;1.00;;;;;;7363584;19;20081;-66
2022/09/23 12:04:59;;;;;;;3.63;3.10;;;18.50;1.00;;;;;;7354418;19;20456;-67
2022/09/23 12:07:42;;;;;;;5.50;3.13;;;18.70;1.00;;;;;;7380899;19;20025;-67
2022/09/23 12:10:12;;;;;;;5.03;3.30;;;18.60;1.00;;;;;;7361491;19;20122;-66
2022/09/23 12:12:55;;;;;;;6.45;3.97;;;18.80;1.00;;;;;;7362579;19;20014;-67
2022/09/23 12:15:38;;;;;;;4.90;3.58;;;18.60;1.00;;;;;;7356980;19;20039;-66
2022/09/23 12:18:34;;;;;;;5.75;4.15;;;18.20;1.00;;;;;;7361124;19;20022;-68
2022/09/23 12:21:28;;;;;;;5.10;3.70;;;18.30;1.00;;;;;;7359366;19;20013;-67
2022/09/23 12:24:38;;;;;;;6.82;3.85;;;18.20;1.00;;;;;;7358465;19;20040;-66
2022/09/23 12:27:13;;;;;;;6.18;3.20;;;18.00;1.00;;;;;;7363959;19;20050;-67
2022/09/23 12:29:45;;;;;;;5.22;3.95;;;18.20;1.00;;;;;;7366786;19;20022;-66
2022/09/23 12:32:20;;;;;;;5.35;4.10;;;18.20;1.00;;;;;;7365763;19;20502;-66
2022/09/23 12:34:51;;;;;;;5.40;3.63;;;18.20;1.00;;;;;;7360037;19;20016;-66
2022/09/23 12:37:27;;;;;;;4.68;3.47;;;18.30;1.00;;;;;;7386618;19;20034;-66
2022/09/23 12:40:03;;;;;;;8.98;3.10;;;18.50;1.00;;;;;;7367080;19;20449;-66
2022/09/23 12:42:33;;;;;;;6.30;2.80;;;18.40;1.00;;;;;;7368185;19;20053;-66
2022/09/23 12:45:33;;;;;;;6.47;3.28;;;18.70;1.00;;;;;;7360427;19;20018;-66
2022/09/23 12:48:27;;;;;;;4.75;2.70;;;18.60;1.00;;;;;;7363999;19;20054;-65
2022/09/23 12:51:07;;;;;;;3.63;2.38;;;18.70;1.00;;;;;;7367612;19;20245;-66
2022/09/23 12:54:15;;;;;;;4.95;2.28;;;18.60;1.00;;;;;;7364801;19;20010;-66
2022/09/23 12:57:03;;;;;;;2.85;2.10;;;18.50;1.00;;;;;;7360322;19;20011;-66
2022/09/23 12:59:49;;;;;;;4.90;2.08;;;18.70;1.00;;;;;;7367547;19;20010;-66
2022/09/23 13:02:30;;;;;;;5.70;2.85;;;19.10;1.00;;;;;;7367996;19;20048;-66
2022/09/23 13:08:09;;;;;;;3.83;2.90;;;18.90;1.00;;;;;;7365582;19;20015;-66
2022/09/23 13:10:44;;;;;;;4.47;2.72;;;18.80;1.00;;;;;;7366750;19;20014;-67
2022/09/23 13:13:23;;;;;;;3.03;2.60;;;18.90;1.00;;;;;;7388171;19;20034;-67
2022/09/23 13:15:54;;;;;;;3.92;2.80;;;19.20;1.00;;;;;;7359972;19;20839;-67
2022/09/23 13:18:26;;;;;;;4.45;2.88;;;18.80;1.00;;;;;;7366875;19;20941;-67
2022/09/23 13:20:59;;;;;;;5.30;3.00;;;18.80;1.00;;;;;;7366761;19;20014;-67
2022/09/23 13:23:30;;;;;;;7.80;3.58;;;18.90;1.00;;;;;;7366546;19;20096;-68
2022/09/23 13:26:03;;;;;;;4.68;3.30;;;18.80;1.00;;;;;;7358903;19;20366;-67
2022/09/23 13:28:36;;;;;;;3.85;3.40;;;18.60;1.00;;;;;;7388637;19;20010;-67
2022/09/23 13:31:08;;;;;;;8.88;5.25;;;18.60;1.00;;;;;;7367594;19;20491;-67
2022/09/23 13:33:44;;;;;;;3.78;2.92;;;18.50;1.00;;;;;;7362365;19;20018;-67
2022/09/23 13:36:18;;;;;;;8.35;4.15;;;18.60;1.00;;;;;;7359923;19;20019;-68
2022/09/23 13:38:48;;;;;;;4.35;3.25;;;18.30;1.00;;;;;;7367098;19;20029;-67
2022/09/23 13:41:21;;;;;;;6.05;3.72;;;18.30;1.00;;;;;;7361372;19;20034;-67
2022/09/23 13:43:57;;;;;;;4.18;3.63;;;18.80;1.00;;;;;;7358931;19;20247;-67
2022/09/23 13:46:30;;;;;;;6.30;3.85;;;19.10;1.00;;;;;;7382154;19;20010;-67
2022/09/23 13:49:01;;;;;;;6.00;3.85;;;18.90;1.00;;;;;;7365900;19;20450;-66